Winchester, VA

4:22 PM EDT on October 19, 2017 (GMT -0400)
Winchester Regional

Weather History for KOKV - May, 2013

Change the Weather History Date:

Friday, May 24, 2013

  Actual Average Record
Temperature  
Mean Temperature 52 °F -  
Max Temperature 60 °F 73 °F 89 °F (2000)
Min Temperature 44 °F 53 °F 42 °F (2006)
Degree Days  
Heating Degree Days 13    
Growing Degree Days 2 (Base 50)    
Moisture  
Dew Point 44 °F    
Average Humidity 73    
Maximum Humidity 100    
Minimum Humidity 54    
Precipitation  
Precipitation 0.01 in - - ()
Sea Level Pressure  
Sea Level Pressure 30.00 in    
Wind  
Wind Speed 11 mph (NW)    
Max Wind Speed 26 mph    
Max Gust Speed 38 mph    
Visibility 10 miles    
Events Rain    
Averages and records for this station are not official NWS values.
T = Trace of Precipitation, MM = Missing Value Source: NWS Daily Summary

Daily Weather History Graph

Daily Weather History Graph

Search for Another Location

Airport or City:

Trip Planner

Search our weather history database for the weather conditions in past years. The results will help you decide how hot, cold, wet, or windy it might be!

Date:

Astronomy

May. 24, 2013 Rise Set
Actual Time 5:52 AM EDT 8:26 PM EDT
Civil Twilight 5:21 AM EDT 8:57 PM EDT
Nautical Twilight 4:42 AM EDT 9:36 PM EDT
Astronomical Twilight 3:59 AM EDT 10:19 PM EDT
Moon 8:07 PM EDT (5/24) 5:22 AM EDT (5/24)
Length of Visible Light 15h 36m
Length of Day
14h 34m
Full, 100% of the Moon is Illuminated
May 24
Full
May 25
Full
May 31
Last Quarter
Jun 8
New
Jun 16
First Quarter

Hourly Weather History & Observations

Time (EDT) Temp. Windchill Dew Point Humidity Pressure Visibility Wind Dir Wind Speed Gust Speed Precip Events Conditions
12:15 AM 60.8 °F - 60.8 °F 100% 29.81 in 10.0 mi South 4.6 mph - N/A Rain Light Rain
12:35 AM 60.8 °F - 60.8 °F 100% 29.81 in 7.0 mi Calm Calm - N/A   Unknown
12:55 AM 60.8 °F - 60.8 °F 100% 29.82 in 7.0 mi Calm Calm - N/A   Unknown
1:15 AM 60.8 °F - 60.8 °F 100% 29.81 in 10.0 mi Calm Calm - 0.01 in   Unknown
1:35 AM 60.8 °F - 60.8 °F 100% 29.81 in 10.0 mi SW 3.5 mph - 0.01 in   Unknown
1:55 AM 60.8 °F - 60.8 °F 100% 29.80 in 10.0 mi WSW 3.5 mph - 0.01 in   Unknown
2:15 AM 60.8 °F - 60.8 °F 100% 29.79 in 7.0 mi WSW 5.8 mph - N/A   Unknown
2:35 AM 60.8 °F - 60.8 °F 100% 29.78 in 10.0 mi West 5.8 mph - N/A   Unknown
2:55 AM 60.8 °F - 60.8 °F 100% 29.78 in 10.0 mi West 4.6 mph - N/A   Unknown
3:15 AM 60.8 °F - 59.0 °F 94% 29.79 in 10.0 mi WNW 3.5 mph - N/A   Scattered Clouds
3:35 AM 59.0 °F - 59.0 °F 100% 29.79 in 10.0 mi Calm Calm - N/A   Scattered Clouds
3:55 AM 59.0 °F - 59.0 °F 100% 29.78 in 10.0 mi Calm Calm - N/A   Scattered Clouds
4:15 AM 59.0 °F - 59.0 °F 100% 29.78 in 10.0 mi Calm Calm - N/A   Mostly Cloudy
4:35 AM 59.0 °F - 59.0 °F 100% 29.79 in 10.0 mi Calm Calm - N/A   Overcast
4:55 AM 60.8 °F - 59.0 °F 94% 29.81 in 10.0 mi NW 12.7 mph 26.5 mph N/A Rain Rain
5:15 AM 59.0 °F - 59.0 °F 100% 29.82 in 10.0 mi NW 11.5 mph - N/A   Overcast
5:35 AM 59.0 °F - 55.4 °F 88% 29.84 in 10.0 mi NW 16.1 mph 24.2 mph N/A   Unknown
5:55 AM 55.4 °F - 51.8 °F 88% 29.86 in 10.0 mi NW 15.0 mph 26.5 mph N/A   Overcast
6:15 AM 53.6 °F - 50.0 °F 88% 29.88 in 10.0 mi NNW 10.4 mph 26.5 mph N/A   Overcast
6:35 AM 53.6 °F - 48.2 °F 82% 29.90 in 10.0 mi NW 13.8 mph 19.6 mph N/A   Overcast
6:55 AM 53.6 °F - 46.4 °F 77% 29.91 in 10.0 mi NNW 17.3 mph 24.2 mph N/A   Overcast
7:15 AM 51.8 °F - 46.4 °F 82% 29.92 in 10.0 mi NW 15.0 mph 23.0 mph N/A Rain Light Rain
7:35 AM 51.8 °F - 44.6 °F 76% 29.94 in 10.0 mi NW 15.0 mph 23.0 mph N/A   Unknown
7:55 AM 51.8 °F - 44.6 °F 76% 29.95 in 10.0 mi NW 18.4 mph 24.2 mph N/A   Unknown
8:15 AM 51.8 °F - 42.8 °F 71% 29.95 in 10.0 mi NW 21.9 mph 26.5 mph N/A   Unknown
8:35 AM 51.8 °F - 42.8 °F 71% 29.95 in 10.0 mi WNW 26.5 mph 34.5 mph N/A   Unknown
8:55 AM 51.8 °F - 42.8 °F 71% 29.97 in 10.0 mi NW 21.9 mph 29.9 mph N/A   Unknown
9:15 AM 51.8 °F - 42.8 °F 71% 29.98 in 10.0 mi NW 13.8 mph - N/A   Unknown
9:35 AM 51.8 °F - 42.8 °F 71% 29.98 in 10.0 mi WNW 19.6 mph 25.3 mph N/A   Unknown
9:55 AM 51.8 °F - 42.8 °F 71% 29.99 in 10.0 mi NW 13.8 mph 28.8 mph N/A   Unknown
10:15 AM 50.0 °F - 42.8 °F 76% 30.00 in 10.0 mi NW 17.3 mph 21.9 mph N/A   Unknown
10:35 AM 51.8 °F - 42.8 °F 71% 30.00 in 10.0 mi NW 18.4 mph 26.5 mph N/A   Unknown
10:55 AM 51.8 °F - 42.8 °F 71% 30.02 in 10.0 mi NNW 15.0 mph 24.2 mph N/A   Unknown
11:15 AM 51.8 °F - 42.8 °F 71% 30.02 in 10.0 mi NW 17.3 mph 31.1 mph N/A   Unknown
11:35 AM 51.8 °F - 42.8 °F 71% 30.03 in 10.0 mi NW 15.0 mph 26.5 mph N/A   Unknown
11:55 AM 51.8 °F - 42.8 °F 71% 30.03 in 10.0 mi NW 18.4 mph 26.5 mph N/A   Unknown
12:15 PM 53.6 °F - 42.8 °F 67% 30.02 in 10.0 mi NW 18.4 mph 28.8 mph N/A   Unknown
12:35 PM 53.6 °F - 44.6 °F 72% 30.03 in 10.0 mi WNW 25.3 mph 28.8 mph N/A   Unknown
12:55 PM 53.6 °F - 42.8 °F 67% 30.03 in 10.0 mi NW 21.9 mph 33.4 mph N/A   Unknown
1:15 PM 53.6 °F - 41.0 °F 62% 30.04 in 10.0 mi NW 23.0 mph 36.8 mph N/A   Unknown
1:35 PM 53.6 °F - 42.8 °F 67% 30.05 in 10.0 mi NW 21.9 mph 33.4 mph N/A   Unknown
1:55 PM 53.6 °F - 41.0 °F 62% 30.05 in 10.0 mi NNW 17.3 mph 36.8 mph N/A   Unknown
2:15 PM 53.6 °F - 41.0 °F 62% 30.06 in 10.0 mi NW 21.9 mph 27.6 mph N/A   Unknown
2:35 PM 51.8 °F - 41.0 °F 67% 30.06 in 10.0 mi NW 18.4 mph 36.8 mph N/A   Unknown
2:55 PM 53.6 °F - 41.0 °F 62% 30.06 in 10.0 mi NW 19.6 mph 28.8 mph N/A   Overcast
3:15 PM 55.4 °F - 41.0 °F 58% 30.06 in 10.0 mi NW 19.6 mph 27.6 mph N/A   Unknown
3:35 PM 55.4 °F - 41.0 °F 58% 30.06 in 10.0 mi NW 19.6 mph 34.5 mph N/A   Unknown
3:55 PM 55.4 °F - 41.0 °F 58% 30.06 in 10.0 mi NW 23.0 mph 29.9 mph N/A   Unknown
4:15 PM 55.4 °F - 41.0 °F 58% 30.07 in 10.0 mi NW 20.7 mph 33.4 mph N/A   Unknown
4:35 PM 55.4 °F - 41.0 °F 58% 30.07 in 10.0 mi WNW 25.3 mph 31.1 mph N/A   Unknown
4:55 PM 53.6 °F - 37.4 °F 54% 30.08 in 10.0 mi NW 18.4 mph 32.2 mph N/A   Unknown
5:15 PM 53.6 °F - 37.4 °F 54% 30.08 in 10.0 mi NW 20.7 mph 33.4 mph N/A   Unknown
5:35 PM 51.8 °F - 35.6 °F 54% 30.10 in 10.0 mi NW 26.5 mph 35.7 mph N/A   Unknown
5:55 PM 51.8 °F - 35.6 °F 54% 30.10 in 10.0 mi NW 23.0 mph 34.5 mph N/A   Mostly Cloudy
6:15 PM 51.8 °F - 35.6 °F 54% 30.10 in 10.0 mi WNW 18.4 mph 26.5 mph N/A   Mostly Cloudy
6:35 PM 51.8 °F - 35.6 °F 54% 30.10 in 10.0 mi NW 26.5 mph 38.0 mph N/A   Scattered Clouds
6:55 PM 51.8 °F - 35.6 °F 54% 30.11 in 10.0 mi NW 15.0 mph 27.6 mph N/A   Clear
7:15 PM 51.8 °F - 35.6 °F 54% 30.12 in 10.0 mi NW 13.8 mph 24.2 mph N/A   Unknown
7:35 PM 51.8 °F - 35.6 °F 54% 30.13 in 10.0 mi NW 16.1 mph 25.3 mph N/A   Unknown
7:55 PM 50.0 °F - 35.6 °F 58% 30.14 in 10.0 mi North 8.1 mph - N/A   Unknown
8:15 PM 50.0 °F - 35.6 °F 58% 30.15 in 10.0 mi NW 9.2 mph - N/A   Unknown
8:35 PM 48.2 °F - 35.6 °F 62% 30.16 in 10.0 mi NW 10.4 mph - N/A   Overcast
8:55 PM 46.4 °F 42.4 °F 33.8 °F 62% 30.16 in 10.0 mi North 8.1 mph - N/A   Overcast
9:15 PM 46.4 °F 41.9 °F 33.8 °F 62% 30.17 in 10.0 mi NNW 9.2 mph 16.1 mph N/A   Mostly Cloudy
9:35 PM 46.4 °F 41.5 °F 33.8 °F 62% 30.18 in 10.0 mi NW 10.4 mph - N/A   Overcast
9:55 PM 46.4 °F 39.5 °F 33.8 °F 62% 30.18 in 10.0 mi NW 17.3 mph 23.0 mph N/A   Scattered Clouds
10:15 PM 46.4 °F 42.4 °F 32.0 °F 57% 30.20 in 10.0 mi NW 8.1 mph 17.3 mph N/A   Mostly Cloudy
10:35 PM 44.6 °F 39.2 °F 32.0 °F 61% 30.21 in 10.0 mi NW 10.4 mph 17.3 mph N/A   Scattered Clouds
10:55 PM 44.6 °F 38.8 °F 32.0 °F 61% 30.21 in 10.0 mi NW 11.5 mph 18.4 mph N/A   Scattered Clouds
11:15 PM 44.6 °F 38.8 °F 32.0 °F 61% 30.20 in 10.0 mi NW 11.5 mph - N/A   Scattered Clouds
11:35 PM 44.6 °F 40.2 °F 32.0 °F 61% 30.21 in 10.0 mi NW 8.1 mph - N/A   Mostly Cloudy
11:55 PM 44.6 °F 38.4 °F 32.0 °F 61% 30.21 in 10.0 mi NW 12.7 mph 16.1 mph N/A   Overcast